createdAt,value
2016-11-16T00:00:55.397Z,97.27
2016-11-16T00:02:11.601Z,97.27
2016-11-16T00:03:27.930Z,97.08
2016-11-16T00:04:43.840Z,97.27
2016-11-16T00:06:00.619Z,96.89
2016-11-16T00:07:16.258Z,97.27
2016-11-16T00:08:31.215Z,97.36
2016-11-16T00:09:47.806Z,97.27
2016-11-16T00:11:02.580Z,97.13
2016-11-16T00:12:18.205Z,97.27
2016-11-16T00:13:34.422Z,97.27
2016-11-16T00:14:49.261Z,97.36
2016-11-16T00:16:03.980Z,97.13
2016-11-16T00:17:17.495Z,97.36
2016-11-16T00:18:32.597Z,97.17
2016-11-16T00:19:48.907Z,97.32
2016-11-16T00:21:05.302Z,97.32
2016-11-16T00:22:20.492Z,97.13
2016-11-16T00:23:34.964Z,97.27
2016-11-16T00:24:49.549Z,97.17
2016-11-16T00:26:00.374Z,97.36
2016-11-16T00:27:15.441Z,97.36
2016-11-16T00:28:31.497Z,97.36
2016-11-16T00:29:48.281Z,97.27
2016-11-16T00:31:05.068Z,97.22
2016-11-16T00:32:22.152Z,97.03
2016-11-16T00:33:38.572Z,97.17
2016-11-16T00:34:55.179Z,96.89
2016-11-16T00:36:08.423Z,97.08
2016-11-16T00:37:23.102Z,97.17
2016-11-16T00:38:38.638Z,97.08
2016-11-16T00:39:53.652Z,97.13
2016-11-16T00:41:05.550Z,96.89
2016-11-16T00:42:20.595Z,97.27
2016-11-16T00:43:34.566Z,97.46
2016-11-16T00:44:51.246Z,97.36
2016-11-16T00:46:03.475Z,97.27
2016-11-16T00:47:16.453Z,96.89
2016-11-16T00:48:32.452Z,96.98
2016-11-16T00:49:47.022Z,97.27
2016-11-16T00:51:00.857Z,97.13
2016-11-16T00:52:16.963Z,97.13
2016-11-16T00:53:33.841Z,97.32
2016-11-16T00:54:47.301Z,97.46
2016-11-16T00:56:00.519Z,97.27
2016-11-16T00:57:15.999Z,97.13
2016-11-16T00:58:32.443Z,97.51
2016-11-16T00:59:46.051Z,97.36
2016-11-16T01:01:01.281Z,97.65
2016-11-16T01:02:17.645Z,97.56
2016-11-16T01:03:32.745Z,97.13
2016-11-16T01:04:48.902Z,97.13
2016-11-16T01:06:05.217Z,96.94
2016-11-16T01:07:21.128Z,97.32
2016-11-16T01:08:37.276Z,96.94
2016-11-16T01:09:52.244Z,97.41
2016-11-16T01:11:07.307Z,97.03
2016-11-16T01:12:22.143Z,97.51
2016-11-16T01:13:37.049Z,97.36
2016-11-16T01:14:51.637Z,97.32
2016-11-16T01:16:06.311Z,97.13
2016-11-16T01:17:19.804Z,97.61
2016-11-16T01:18:34.228Z,97.61
2016-11-16T01:19:50.902Z,97.8
2016-11-16T01:21:05.556Z,97.32
2016-11-16T01:22:20.168Z,97.51
2016-11-16T01:23:34.850Z,97.61
2016-11-16T01:24:50.482Z,97.51
2016-11-16T01:26:07.195Z,97.89
2016-11-16T01:27:22.252Z,97.8
2016-11-16T01:28:38.552Z,97.32
2016-11-16T01:29:53.438Z,97.51
2016-11-16T01:31:08.651Z,97.41
2016-11-16T01:32:24.493Z,97.51
2016-11-16T01:33:39.340Z,97.8
2016-11-16T01:34:54.026Z,97.8
2016-11-16T01:36:09.542Z,97.61
2016-11-16T01:37:23.726Z,97.7
2016-11-16T01:38:39.283Z,97.7
2016-11-16T01:39:55.384Z,97.7
2016-11-16T01:41:11.128Z,97.8
2016-11-16T01:42:25.588Z,97.7
2016-11-16T01:43:41.751Z,97.7
2016-11-16T01:44:55.006Z,97.89
2016-11-16T01:46:09.679Z,97.61
2016-11-16T01:47:24.132Z,97.7
2016-11-16T01:48:37.731Z,97.7
2016-11-16T01:49:54.160Z,97.51
2016-11-16T01:51:10.201Z,97.51
2016-11-16T01:52:24.430Z,97.41
2016-11-16T01:53:39.102Z,97.61
2016-11-16T01:54:53.903Z,97.61
2016-11-16T01:56:08.655Z,97.7
2016-11-16T01:57:24.640Z,97.61
2016-11-16T01:58:40.614Z,97.51
2016-11-16T01:59:55.734Z,97.51
2016-11-16T02:01:10.393Z,97.41
2016-11-16T02:02:26.726Z,97.41
2016-11-16T02:03:43.108Z,97.51
2016-11-16T02:04:58.044Z,97.7
2016-11-16T02:06:11.148Z,97.61
2016-11-16T02:07:27.863Z,97.8
2016-11-16T02:08:42.214Z,97.61
2016-11-16T02:09:57.298Z,97.99
2016-11-16T02:11:11.982Z,97.99
2016-11-16T02:12:28.274Z,97.32
2016-11-16T02:13:41.272Z,97.89
2016-11-16T02:14:54.509Z,97.41
2016-11-16T02:16:09.502Z,97.8
2016-11-16T02:17:23.847Z,97.41
2016-11-16T02:18:38.716Z,97.61
2016-11-16T02:19:51.645Z,97.8
2016-11-16T02:21:06.746Z,97.7
2016-11-16T02:22:23.519Z,97.8
2016-11-16T02:23:37.942Z,97.7
2016-11-16T02:24:52.379Z,97.61
2016-11-16T02:26:06.773Z,97.51
2016-11-16T02:27:21.479Z,97.7
2016-11-16T02:28:35.996Z,97.7
2016-11-16T02:29:52.270Z,97.51
2016-11-16T02:31:07.549Z,97.61
2016-11-16T02:32:23.569Z,97.51
2016-11-16T02:33:39.526Z,97.61
2016-11-16T02:34:55.410Z,97.51
2016-11-16T02:36:11.449Z,97.61
2016-11-16T02:37:24.582Z,97.51
2016-11-16T02:38:39.302Z,97.51
2016-11-16T02:39:52.351Z,97.61
2016-11-16T02:41:08.930Z,97.7
2016-11-16T02:42:23.443Z,97.61
2016-11-16T02:43:38.904Z,97.51
2016-11-16T02:44:53.329Z,97.61
2016-11-16T02:46:09.750Z,97.51
2016-11-16T02:47:26.468Z,97.7
2016-11-16T02:48:40.406Z,97.61
2016-11-16T02:49:56.140Z,97.7
2016-11-16T02:51:10.895Z,97.89
2016-11-16T02:52:25.753Z,97.7
2016-11-16T02:53:41.153Z,97.8
2016-11-16T02:54:58.287Z,97.32
2016-11-16T02:56:11.509Z,97.61
2016-11-16T02:57:26.314Z,97.99
2016-11-16T02:58:42.581Z,97.89
2016-11-16T02:59:56.912Z,97.7
2016-11-16T03:01:13.595Z,97.89
2016-11-16T03:02:30.588Z,97.61
2016-11-16T03:03:42.726Z,97.8
2016-11-16T03:04:57.383Z,97.8
2016-11-16T03:06:12.475Z,97.61
2016-11-16T03:07:28.821Z,97.89
2016-11-16T03:08:44.058Z,97.89
2016-11-16T03:09:59.125Z,97.51
2016-11-16T03:11:13.310Z,97.8
2016-11-16T03:12:26.082Z,97.8
2016-11-16T03:13:41.261Z,97.7
2016-11-16T03:14:57.970Z,97.61
2016-11-16T03:16:11.084Z,97.7
2016-11-16T03:17:25.969Z,97.7
2016-11-16T03:18:42.430Z,97.61
2016-11-16T03:19:59.140Z,97.7
2016-11-16T03:21:16.240Z,97.7
2016-11-16T03:22:33.136Z,97.7
2016-11-16T03:23:49.500Z,97.61
2016-11-16T03:25:05.559Z,97.51
2016-11-16T03:26:21.659Z,97.51
2016-11-16T03:27:33.718Z,97.51
2016-11-16T03:28:48.313Z,97.61
2016-11-16T03:30:04.677Z,97.61
2016-11-16T03:31:19.840Z,97.7
2016-11-16T03:32:33.383Z,97.89
2016-11-16T03:33:49.420Z,97.7
2016-11-16T03:35:05.955Z,97.8
2016-11-16T03:36:21.992Z,97.7
2016-11-16T03:37:38.151Z,97.41
2016-11-16T03:38:51.253Z,97.41
2016-11-16T03:40:07.330Z,97.51
2016-11-16T03:41:22.010Z,97.8
2016-11-16T03:42:38.735Z,97.8
2016-11-16T03:43:54.774Z,97.51
2016-11-16T03:45:10.811Z,97.32
2016-11-16T03:46:27.262Z,97.32
2016-11-16T03:47:43.148Z,97.61
2016-11-16T03:48:57.810Z,97.32
2016-11-16T03:50:11.830Z,97.51
2016-11-16T03:51:26.903Z,97.32
2016-11-16T03:52:42.978Z,97.8
2016-11-16T03:53:57.927Z,97.51
2016-11-16T03:55:11.885Z,97.32
2016-11-16T03:56:28.193Z,97.8
2016-11-16T03:57:44.344Z,97.61
2016-11-16T03:59:00.464Z,97.7
2016-11-16T04:00:16.397Z,97.7
2016-11-16T04:01:31.472Z,97.32
2016-11-16T04:02:47.397Z,97.41
2016-11-16T04:04:03.158Z,97.27
2016-11-16T04:05:19.631Z,97.61
2016-11-16T04:06:34.543Z,97.41
2016-11-16T04:07:49.760Z,97.13
2016-11-16T04:09:06.133Z,97.61
2016-11-16T04:10:22.430Z,97.61
2016-11-16T04:11:38.417Z,97.22
2016-11-16T04:12:54.947Z,97.61
2016-11-16T04:14:11.470Z,97.13
2016-11-16T04:15:27.765Z,97.7
2016-11-16T04:16:42.717Z,97.61
2016-11-16T04:17:55.777Z,97.8
2016-11-16T04:19:10.315Z,97.8
2016-11-16T04:20:24.843Z,97.89
2016-11-16T04:21:40.715Z,97.7
2016-11-16T04:22:55.553Z,97.7
2016-11-16T04:24:10.788Z,97.8
2016-11-16T04:25:26.927Z,97.8
2016-11-16T04:26:42.593Z,97.89
2016-11-16T04:27:58.620Z,97.7
2016-11-16T04:29:12.859Z,97.51
2016-11-16T04:30:27.967Z,97.7
2016-11-16T04:31:44.467Z,97.7
2016-11-16T04:33:00.775Z,97.41
2016-11-16T04:34:15.525Z,97.61
2016-11-16T04:35:30.218Z,97.8
2016-11-16T04:36:43.658Z,97.51
2016-11-16T04:37:59.940Z,97.61
2016-11-16T04:39:16.326Z,97.61
2016-11-16T04:40:33.183Z,97.51
2016-11-16T04:41:48.151Z,97.8
2016-11-16T04:43:02.838Z,97.7
2016-11-16T04:44:19.743Z,97.46
2016-11-16T04:45:36.039Z,97.7
2016-11-16T04:46:52.390Z,97.7
2016-11-16T04:48:07.559Z,97.84
2016-11-16T04:49:23.391Z,97.75
2016-11-16T04:50:40.133Z,97.8
2016-11-16T04:51:56.823Z,97.36
2016-11-16T04:53:11.414Z,97.46
2016-11-16T04:54:28.121Z,97.65
2016-11-16T04:55:44.415Z,97.65
2016-11-16T04:57:00.703Z,97.94
2016-11-16T04:58:16.419Z,97.75
2016-11-16T04:59:31.661Z,97.94
2016-11-16T05:00:46.318Z,97.7
2016-11-16T05:02:02.440Z,97.94
2016-11-16T05:03:15.897Z,97.94
2016-11-16T05:04:30.901Z,97.89
2016-11-16T05:05:45.597Z,97.94
2016-11-16T05:07:00.640Z,97.89
2016-11-16T05:08:13.730Z,97.84
2016-11-16T05:09:28.612Z,97.94
2016-11-16T05:10:44.751Z,98.03
2016-11-16T05:12:00.895Z,97.56
2016-11-16T05:13:18.021Z,97.75
2016-11-16T05:14:34.924Z,97.7
2016-11-16T05:15:50.004Z,97.56
2016-11-16T05:17:05.518Z,97.84
2016-11-16T05:18:22.191Z,97.75
2016-11-16T05:19:38.255Z,97.65
2016-11-16T05:20:52.033Z,97.75
2016-11-16T05:22:05.462Z,97.75
2016-11-16T05:23:21.411Z,97.65
2016-11-16T05:24:36.340Z,97.65
2016-11-16T05:25:51.008Z,97.7
2016-11-16T05:27:07.453Z,97.65
2016-11-16T05:28:20.682Z,97.75
2016-11-16T05:29:37.125Z,97.65
2016-11-16T05:30:53.200Z,97.27
2016-11-16T05:32:09.613Z,97.89
2016-11-16T05:33:22.334Z,97.75
2016-11-16T05:34:37.193Z,97.65
2016-11-16T05:35:53.633Z,97.75
2016-11-16T05:37:08.454Z,97.65
2016-11-16T05:38:23.090Z,97.65
2016-11-16T05:39:37.107Z,97.8
2016-11-16T05:40:53.506Z,97.8
2016-11-16T05:42:10.240Z,97.65
2016-11-16T05:43:26.386Z,97.51
2016-11-16T05:44:43.084Z,97.46
2016-11-16T05:45:59.777Z,97.7
2016-11-16T05:47:15.739Z,97.65
2016-11-16T05:48:30.936Z,97.65
2016-11-16T05:49:44.084Z,97.7
2016-11-16T05:50:56.885Z,97.7
2016-11-16T05:52:10.720Z,97.75
2016-11-16T05:53:26.476Z,97.8
2016-11-16T05:54:42.351Z,97.75
2016-11-16T05:55:56.950Z,97.7
2016-11-16T05:57:12.849Z,97.7
2016-11-16T05:58:27.660Z,97.7
2016-11-16T05:59:44.634Z,97.8
2016-11-16T06:00:59.731Z,97.7
2016-11-16T06:02:16.232Z,97.32
2016-11-16T06:03:31.690Z,97.7
2016-11-16T06:04:48.394Z,97.51
2016-11-16T06:06:02.283Z,97.7
2016-11-16T06:07:15.904Z,97.7
2016-11-16T06:08:30.289Z,97.51
2016-11-16T06:09:46.182Z,97.51
2016-11-16T06:11:01.212Z,97.7
2016-11-16T06:12:15.996Z,97.8
2016-11-16T06:13:32.398Z,97.8
2016-11-16T06:14:48.445Z,97.32
2016-11-16T06:16:05.026Z,97.89
2016-11-16T06:17:22.103Z,97.7
2016-11-16T06:18:38.834Z,97.51
2016-11-16T06:19:55.593Z,97.7
2016-11-16T06:21:11.262Z,97.8
2016-11-16T06:22:26.148Z,97.7
2016-11-16T06:23:41.451Z,98.46
2016-11-16T06:24:58.085Z,98.36
2016-11-16T06:26:13.141Z,98.65
2016-11-16T06:27:27.683Z,98.46
2016-11-16T06:28:44.426Z,98.36
2016-11-16T06:29:59.311Z,98.36
2016-11-16T06:31:14.978Z,98.65
2016-11-16T06:32:30.234Z,98.36
2016-11-16T06:33:46.578Z,98.56
2016-11-16T06:35:03.189Z,98.75
2016-11-16T06:36:18.043Z,98.36
2016-11-16T06:37:33.080Z,98.46
2016-11-16T06:38:49.644Z,97.89
2016-11-16T06:40:04.979Z,98.65
2016-11-16T06:41:16.568Z,98.46
2016-11-16T06:42:32.701Z,98.85
2016-11-16T06:43:47.424Z,98.36
2016-11-16T06:45:01.444Z,98.75
2016-11-16T06:46:17.444Z,98.56
2016-11-16T06:47:34.277Z,97.8
2016-11-16T06:48:51.040Z,97.89
2016-11-16T06:50:06.677Z,98.75
2016-11-16T06:51:20.950Z,98.75
2016-11-16T06:52:35.848Z,98.36
2016-11-16T06:53:50.797Z,98.46
2016-11-16T06:55:05.403Z,98.75
2016-11-16T06:56:20.444Z,98.75
2016-11-16T06:57:36.648Z,98.08
2016-11-16T06:58:53.438Z,98.18
2016-11-16T07:00:09.624Z,98.08
2016-11-16T07:01:26.586Z,97.99
2016-11-16T07:02:42.489Z,98.56
2016-11-16T07:03:59.336Z,98.36
2016-11-16T07:05:16.048Z,98.36
2016-11-16T07:06:32.090Z,98.56
2016-11-16T07:07:48.610Z,98.36
2016-11-16T07:09:02.851Z,98.46
2016-11-16T07:10:18.744Z,98.56
2016-11-16T07:11:35.347Z,98.46
2016-11-16T07:12:51.619Z,98.46
2016-11-16T07:14:06.979Z,98.18
2016-11-16T07:15:21.848Z,98.36
2016-11-16T07:16:36.847Z,98.56
2016-11-16T07:17:50.106Z,98.56
2016-11-16T07:19:06.406Z,98.46
2016-11-16T07:20:22.624Z,98.36
2016-11-16T07:21:38.340Z,98.08
2016-11-16T07:22:51.396Z,98.08
2016-11-16T07:24:07.743Z,97.7
2016-11-16T07:25:24.304Z,97.99
2016-11-16T07:26:39.124Z,97.61
2016-11-16T07:27:54.202Z,97.8
2016-11-16T07:29:09.670Z,97.7
2016-11-16T07:30:24.704Z,97.99
2016-11-16T07:31:41.222Z,97.89
2016-11-16T07:32:55.936Z,97.8
2016-11-16T07:34:11.055Z,97.66
2016-11-16T07:35:25.249Z,97.61
2016-11-16T07:36:42.031Z,97.85
2016-11-16T07:37:56.770Z,97.8
2016-11-16T07:39:13.465Z,97.94
2016-11-16T07:40:28.465Z,97.94
2016-11-16T07:41:43.359Z,97.8
2016-11-16T07:42:58.297Z,97.75
2016-11-16T07:44:13.296Z,97.75
2016-11-16T07:45:26.283Z,97.66
2016-11-16T07:46:42.290Z,97.66
2016-11-16T07:47:58.414Z,97.75
2016-11-16T07:49:11.536Z,97.56
2016-11-16T07:50:26.815Z,97.85
2016-11-16T07:51:41.367Z,97.46
2016-11-16T07:52:56.227Z,98.13
2016-11-16T07:54:09.440Z,97.85
2016-11-16T07:55:24.466Z,98.03
2016-11-16T07:56:39.124Z,97.85
2016-11-16T07:57:54.378Z,98.03
2016-11-16T07:59:10.031Z,97.75
2016-11-16T08:00:25.935Z,98.51
2016-11-16T08:01:41.076Z,98.42
2016-11-16T08:02:54.318Z,98.42
2016-11-16T08:04:09.705Z,98.32
2016-11-16T08:05:23.591Z,98.13
2016-11-16T08:06:40.064Z,98.32
2016-11-16T08:07:53.608Z,98.32
2016-11-16T08:09:08.391Z,98.51
2016-11-16T08:10:24.464Z,98.61
2016-11-16T08:11:38.919Z,98.42
2016-11-16T08:12:54.302Z,98.51
2016-11-16T08:14:07.755Z,98.22
2016-11-16T08:15:24.634Z,98.51
2016-11-16T08:16:38.985Z,98.42
2016-11-16T08:17:54.106Z,98.13
2016-11-16T08:19:10.624Z,98.42
2016-11-16T08:20:26.966Z,98.51
2016-11-16T08:21:41.026Z,98.61
2016-11-16T08:22:54.502Z,98.61
2016-11-16T08:24:11.065Z,98.42
2016-11-16T08:25:26.483Z,98.42
2016-11-16T08:26:41.486Z,98.51
2016-11-16T08:27:54.941Z,98.7
2016-11-16T08:29:10.073Z,98.42
2016-11-16T08:30:22.257Z,98.42
2016-11-16T08:31:39.199Z,98.42
2016-11-16T08:32:52.466Z,98.13
2016-11-16T08:34:07.929Z,98.22
2016-11-16T08:35:24.708Z,98.22
2016-11-16T08:36:40.093Z,98.13
2016-11-16T08:37:55.056Z,99.18
2016-11-16T08:39:10.904Z,98.42
2016-11-16T08:40:28.143Z,98.99
2016-11-16T08:41:40.467Z,99.08
2016-11-16T08:42:53.880Z,98.99
2016-11-16T08:44:10.570Z,97.94
2016-11-16T08:45:23.991Z,98.8
2016-11-16T08:46:40.158Z,98.7
2016-11-16T08:47:56.869Z,98.51
2016-11-16T08:49:12.408Z,99.08
2016-11-16T08:50:27.625Z,98.85
2016-11-16T08:51:42.470Z,99.27
2016-11-16T08:52:59.272Z,98.61
2016-11-16T08:54:14.016Z,98.7
2016-11-16T08:55:28.769Z,98.85
2016-11-16T08:56:42.060Z,98.37
2016-11-16T08:57:55.524Z,98.66
2016-11-16T08:59:12.385Z,98.37
2016-11-16T09:00:28.778Z,98.75
2016-11-16T09:01:43.791Z,98.47
2016-11-16T09:02:59.038Z,98.27
2016-11-16T09:04:11.261Z,98.66
2016-11-16T09:05:24.554Z,98.56
2016-11-16T09:06:40.108Z,98.47
2016-11-16T09:07:54.844Z,98.18
2016-11-16T09:09:09.445Z,98.18
2016-11-16T09:10:22.987Z,98.18
2016-11-16T09:11:36.204Z,97.99
2016-11-16T09:12:51.147Z,97.8
2016-11-16T09:14:06.634Z,97.99
2016-11-16T09:15:20.479Z,97.99
2016-11-16T09:16:35.192Z,98.56
2016-11-16T09:17:50.277Z,98.56
2016-11-16T09:19:06.764Z,98.56
2016-11-16T09:20:17.236Z,98.47
2016-11-16T09:21:31.975Z,98.47
2016-11-16T09:22:46.679Z,98.66
2016-11-16T09:24:02.173Z,98.47
2016-11-16T09:25:15.831Z,98.08
2016-11-16T09:26:32.767Z,97.99
2016-11-16T09:27:49.272Z,97.94
2016-11-16T09:29:05.562Z,97.75
2016-11-16T09:30:19.126Z,97.85
2016-11-16T09:31:32.949Z,97.85
2016-11-16T09:32:47.409Z,97.66
2016-11-16T09:34:02.367Z,97.85
2016-11-16T09:35:15.103Z,97.89
2016-11-16T09:36:30.374Z,97.75
2016-11-16T09:37:44.660Z,97.8
2016-11-16T09:38:59.634Z,97.42
2016-11-16T09:40:14.832Z,97.75
2016-11-16T09:41:29.424Z,97.47
2016-11-16T09:42:42.866Z,97.56
2016-11-16T09:43:59.207Z,97.27
2016-11-16T09:45:15.317Z,97.75
2016-11-16T09:46:30.016Z,97.08
2016-11-16T09:47:46.338Z,97.18
2016-11-16T09:49:01.030Z,97.47
2016-11-16T09:50:14.847Z,97.94
2016-11-16T09:51:29.745Z,97.94
2016-11-16T09:52:44.992Z,98.03
2016-11-16T09:53:57.128Z,97.75
2016-11-16T09:55:11.882Z,97.75
2016-11-16T09:56:26.532Z,97.85
2016-11-16T09:57:41.451Z,97.75
2016-11-16T09:58:53.694Z,97.75
2016-11-16T10:00:10.156Z,97.56
2016-11-16T10:01:25.252Z,97.66
2016-11-16T10:02:40.786Z,97.85
2016-11-16T10:03:57.609Z,97.75
2016-11-16T10:05:12.044Z,97.85
2016-11-16T10:06:25.670Z,97.75
2016-11-16T10:07:41.946Z,97.85
2016-11-16T10:08:55.525Z,97.75
2016-11-16T10:10:12.214Z,97.66
2016-11-16T10:11:27.075Z,97.66
2016-11-16T10:12:42.274Z,97.47
2016-11-16T10:13:55.737Z,97.85
2016-11-16T10:15:12.269Z,97.85
2016-11-16T10:16:28.782Z,97.47
2016-11-16T10:17:43.678Z,97.47
2016-11-16T10:18:57.394Z,97.37
2016-11-16T10:20:12.263Z,97.47
2016-11-16T10:21:28.946Z,96.98
2016-11-16T10:22:42.287Z,97.18
2016-11-16T10:23:58.526Z,96.89
2016-11-16T10:25:13.755Z,96.89
2016-11-16T10:26:28.424Z,96.61
2016-11-16T10:27:44.320Z,96.8
2016-11-16T10:28:57.627Z,97.08
2016-11-16T10:30:14.037Z,96.98
2016-11-16T10:31:26.288Z,96.8
2016-11-16T10:32:43.174Z,96.8
2016-11-16T10:33:57.851Z,96.84
2016-11-16T10:35:11.578Z,96.66
2016-11-16T10:36:27.931Z,96.56
2016-11-16T10:37:43.824Z,96.27
2016-11-16T10:38:59.968Z,96.37
2016-11-16T10:40:16.726Z,96.27
2016-11-16T10:41:32.091Z,95.98
2016-11-16T10:42:46.722Z,95.98
2016-11-16T10:44:02.763Z,95.98
2016-11-16T10:45:15.746Z,95.98
2016-11-16T10:46:31.909Z,95.7
2016-11-16T10:47:43.848Z,96.08
2016-11-16T10:48:57.141Z,95.79
2016-11-16T10:50:13.613Z,95.79
2016-11-16T10:51:27.365Z,95.79
2016-11-16T10:52:41.796Z,95.98
2016-11-16T10:53:58.082Z,95.41
2016-11-16T10:55:14.633Z,96.27
2016-11-16T10:56:29.724Z,95.51
2016-11-16T10:57:44.473Z,96.27
2016-11-16T10:58:59.581Z,95.32
2016-11-16T11:00:12.605Z,95.61
2016-11-16T11:01:24.201Z,95.61
2016-11-16T11:02:39.145Z,95.61
2016-11-16T11:03:54.460Z,95.61
2016-11-16T11:05:10.191Z,95.32
2016-11-16T11:06:23.412Z,95.32
2016-11-16T11:07:36.979Z,95.7
2016-11-16T11:08:53.295Z,95.32
2016-11-16T11:10:06.621Z,95.61
2016-11-16T11:11:21.448Z,95.41
2016-11-16T11:12:37.092Z,95.79
2016-11-16T11:13:52.262Z,95.7
2016-11-16T11:15:06.504Z,95.7
2016-11-16T11:16:22.907Z,96.37
2016-11-16T11:17:38.927Z,96.17
2016-11-16T11:18:53.691Z,96.27
2016-11-16T11:20:10.116Z,95.89
2016-11-16T11:21:25.898Z,96.46
2016-11-16T11:22:40.849Z,96.27
2016-11-16T11:23:57.432Z,96.75
2016-11-16T11:25:12.555Z,97.03
2016-11-16T11:26:26.572Z,96.66
2016-11-16T11:27:40.408Z,95.98
2016-11-16T11:28:55.526Z,95.79
2016-11-16T11:30:07.775Z,96.17
2016-11-16T11:31:23.142Z,95.98
2016-11-16T11:32:39.829Z,95.79
2016-11-16T11:33:52.985Z,96.17
2016-11-16T11:35:06.205Z,96.27
2016-11-16T11:36:22.739Z,95.03
2016-11-16T11:37:35.696Z,94.84
2016-11-16T11:38:50.778Z,95.22
2016-11-16T11:40:07.661Z,95.12
2016-11-16T11:41:23.299Z,94.93
2016-11-16T11:42:38.783Z,94.7
2016-11-16T11:43:50.908Z,94.89
2016-11-16T11:45:05.162Z,94.89
2016-11-16T11:46:18.361Z,94.12
2016-11-16T11:47:34.834Z,93.36
2016-11-16T11:48:50.309Z,93.45
2016-11-16T11:50:05.966Z,93.65
2016-11-16T11:51:22.669Z,92.97
2016-11-16T11:52:36.401Z,93.26
2016-11-16T11:53:51.583Z,92.88
2016-11-16T11:55:08.087Z,92.59
2016-11-16T11:56:21.645Z,92.3
2016-11-16T11:57:34.822Z,92.4
2016-11-16T11:58:51.314Z,92.88
2016-11-16T12:00:06.644Z,92.97
2016-11-16T12:01:21.060Z,92.3
2016-11-16T12:02:36.400Z,92.02
2016-11-16T12:03:49.833Z,92.21
2016-11-16T12:05:05.850Z,91.45
2016-11-16T12:06:20.902Z,91.45
2016-11-16T12:07:36.777Z,92.02
2016-11-16T12:08:53.879Z,91.54
2016-11-16T12:10:10.589Z,91.25
2016-11-16T12:11:21.093Z,91.06
2016-11-16T12:12:37.153Z,91.16
2016-11-16T12:13:53.371Z,91.06
2016-11-16T12:15:09.276Z,90.88
2016-11-16T12:16:24.381Z,90.88
2016-11-16T12:17:40.101Z,90.97
2016-11-16T12:18:56.007Z,90.59
2016-11-16T12:20:10.950Z,91.11
2016-11-16T12:21:27.006Z,90.44
2016-11-16T12:22:41.461Z,89.77
2016-11-16T12:23:56.692Z,90.06
2016-11-16T12:25:12.381Z,89.96
2016-11-16T12:26:28.676Z,90.25
2016-11-16T12:27:43.103Z,89.77
2016-11-16T12:28:58.052Z,89.77
2016-11-16T12:30:14.869Z,90.06
2016-11-16T12:31:28.067Z,90.06
2016-11-16T12:32:43.568Z,89.58
2016-11-16T12:33:58.497Z,89.67
2016-11-16T12:35:14.181Z,89.01
2016-11-16T12:36:29.167Z,88.72
2016-11-16T12:37:43.902Z,88.34
2016-11-16T12:39:00.759Z,87.81
2016-11-16T12:40:13.852Z,87.81
2016-11-16T12:41:28.630Z,87.62
2016-11-16T12:42:44.647Z,87.14
2016-11-16T12:44:01.378Z,86.66
2016-11-16T12:45:15.669Z,86.28
2016-11-16T12:46:30.723Z,86.66
2016-11-16T12:47:44.468Z,86.47
2016-11-16T12:49:00.596Z,86.08
2016-11-16T12:50:15.740Z,85.71
2016-11-16T12:51:32.853Z,84.94
2016-11-16T12:52:46.874Z,85.03
2016-11-16T12:54:00.338Z,85.51
2016-11-16T12:55:14.124Z,84.84
2016-11-16T12:56:30.065Z,85.51
2016-11-16T12:57:43.351Z,85.89
2016-11-16T12:58:58.748Z,85.94
2016-11-16T13:00:14.144Z,84.59
2016-11-16T13:01:28.599Z,84.98
2016-11-16T13:02:42.402Z,84.5
2016-11-16T13:03:58.305Z,84.41
2016-11-16T13:05:12.695Z,83.83
2016-11-16T13:06:29.089Z,83.73
2016-11-16T13:07:44.320Z,83.06
2016-11-16T13:08:55.846Z,82.87
2016-11-16T13:10:12.421Z,82.97
2016-11-16T13:11:27.254Z,82.68
2016-11-16T13:12:43.552Z,82.87
2016-11-16T13:13:56.842Z,84.22
2016-11-16T13:15:12.330Z,82.97
2016-11-16T13:16:27.167Z,83.16
2016-11-16T13:17:43.099Z,83.64
2016-11-16T13:18:56.485Z,83.26
2016-11-16T13:20:11.520Z,82.87
2016-11-16T13:21:27.149Z,82.68
2016-11-16T13:22:42.195Z,82.68
2016-11-16T13:23:56.389Z,83.06
2016-11-16T13:25:12.016Z,82.59
2016-11-16T13:26:26.933Z,83.45
2016-11-16T13:27:41.338Z,83.03
2016-11-16T13:28:56.587Z,83.89
2016-11-16T13:30:11.908Z,84.46
2016-11-16T13:31:28.995Z,84.75
2016-11-16T13:32:44.234Z,85.51
2016-11-16T13:33:58.185Z,85.03
2016-11-16T13:35:11.479Z,85.8
2016-11-16T13:36:26.944Z,85.71
2016-11-16T13:37:42.178Z,86.47
2016-11-16T13:38:56.945Z,86.71
2016-11-16T13:40:11.398Z,87.38
2016-11-16T13:41:26.088Z,87.57
2016-11-16T13:42:40.424Z,87.76
2016-11-16T13:43:56.061Z,88.34
2016-11-16T13:45:10.798Z,87.95
2016-11-16T13:46:25.423Z,87.95
2016-11-16T13:47:40.486Z,88.53
2016-11-16T13:48:53.574Z,89.29
2016-11-16T13:50:08.102Z,89.44
2016-11-16T13:51:20.934Z,89.82
2016-11-16T13:52:35.961Z,90.3
2016-11-16T13:53:50.949Z,90.3
2016-11-16T13:55:03.685Z,90.2
2016-11-16T13:56:18.780Z,89.92
2016-11-16T13:57:33.695Z,89.53
2016-11-16T13:58:48.367Z,89.25
2016-11-16T14:00:01.343Z,88.92
2016-11-16T14:01:14.159Z,88.92
2016-11-16T14:02:29.043Z,88.82
2016-11-16T14:03:44.530Z,89.3
2016-11-16T14:04:58.246Z,88.92
2016-11-16T14:06:14.454Z,88.82
2016-11-16T14:07:31.137Z,89.2
2016-11-16T14:08:43.056Z,89.35
2016-11-16T14:09:56.046Z,89.64
2016-11-16T14:11:12.128Z,89.64
2016-11-16T14:12:27.958Z,89.54
2016-11-16T14:13:43.831Z,89.73
2016-11-16T14:14:59.970Z,90.02
2016-11-16T14:16:15.567Z,90.02
2016-11-16T14:17:30.404Z,90.02
2016-11-16T14:18:46.138Z,89.83
2016-11-16T14:19:59.290Z,90.02
2016-11-16T14:21:16.127Z,89.54
2016-11-16T14:22:31.055Z,89.64
2016-11-16T14:23:47.187Z,89.45
2016-11-16T14:25:02.627Z,89.88
2016-11-16T14:26:19.367Z,89.64
2016-11-16T14:27:35.906Z,90.17
2016-11-16T14:28:52.368Z,89.69
2016-11-16T14:30:08.181Z,89.78
2016-11-16T14:31:22.606Z,90.07
2016-11-16T14:32:38.759Z,89.88
2016-11-16T14:33:52.106Z,89.88
2016-11-16T14:35:09.103Z,90.17
2016-11-16T14:36:22.492Z,90.07
2016-11-16T14:37:38.234Z,90.36
2016-11-16T14:38:54.543Z,90.45
2016-11-16T14:40:11.669Z,90.26
2016-11-16T14:41:25.215Z,90.83
2016-11-16T14:42:38.705Z,90.55
2016-11-16T14:43:52.010Z,91.02
2016-11-16T14:45:08.132Z,91.31
2016-11-16T14:46:23.077Z,91.31
2016-11-16T14:47:36.552Z,91.41
2016-11-16T14:48:53.338Z,91.69
2016-11-16T14:50:08.240Z,91.31
2016-11-16T14:51:21.672Z,91.41
2016-11-16T14:52:36.786Z,91.5
2016-11-16T14:53:51.505Z,90.93
2016-11-16T14:55:08.366Z,91.21
2016-11-16T14:56:25.143Z,90.73
2016-11-16T14:57:40.015Z,90.83
2016-11-16T14:58:55.365Z,90.17
2016-11-16T15:00:12.054Z,90.26
2016-11-16T15:01:28.174Z,90.17
2016-11-16T15:02:42.683Z,89.78
2016-11-16T15:03:59.300Z,89.97
2016-11-16T15:05:14.004Z,90.64
2016-11-16T15:06:28.827Z,90.55
2016-11-16T15:07:44.298Z,90.55
2016-11-16T15:08:57.929Z,91.02
2016-11-16T15:10:13.970Z,90.83
2016-11-16T15:11:29.057Z,90.55
2016-11-16T15:12:45.650Z,91.02
2016-11-16T15:14:01.933Z,90.93
2016-11-16T15:15:16.755Z,90.93
2016-11-16T15:16:32.066Z,90.83
2016-11-16T15:17:44.824Z,91.12
2016-11-16T15:18:58.476Z,90.73
2016-11-16T15:20:11.532Z,90.93
2016-11-16T15:21:28.056Z,90.93
2016-11-16T15:22:43.004Z,90.36
2016-11-16T15:23:56.642Z,90.45
2016-11-16T15:25:11.312Z,90.26
2016-11-16T15:26:25.279Z,89.97
2016-11-16T15:27:41.800Z,90.17
2016-11-16T15:28:57.697Z,90.93
2016-11-16T15:30:09.227Z,90.93
2016-11-16T15:31:25.726Z,91.41
2016-11-16T15:32:40.964Z,91.31
2016-11-16T15:33:54.670Z,91.21
2016-11-16T15:35:09.332Z,91.12
2016-11-16T15:36:25.825Z,91.41
2016-11-16T15:37:39.221Z,92.17
2016-11-16T15:38:55.579Z,91.98
2016-11-16T15:40:09.017Z,91.21
2016-11-16T15:41:24.161Z,91.5
2016-11-16T15:42:39.691Z,91.31
2016-11-16T15:43:56.685Z,91.5
2016-11-16T15:45:09.460Z,91.12
2016-11-16T15:46:26.149Z,90.93
2016-11-16T15:47:42.249Z,91.69
2016-11-16T15:48:58.711Z,91.41
2016-11-16T15:50:13.958Z,90.73
2016-11-16T15:51:30.486Z,91.21
2016-11-16T15:52:46.442Z,91.21
2016-11-16T15:54:02.595Z,90.93
2016-11-16T15:55:18.533Z,91.31
2016-11-16T15:56:32.785Z,91.12
2016-11-16T15:57:47.642Z,91.12
2016-11-16T15:59:03.147Z,91.41
2016-11-16T16:00:17.820Z,91.21
2016-11-16T16:01:33.991Z,91.12
2016-11-16T16:02:45.937Z,91.93
2016-11-16T16:04:00.885Z,91.83
2016-11-16T16:05:16.405Z,91.78
2016-11-16T16:06:31.192Z,91.74
2016-11-16T16:07:46.833Z,92.03
2016-11-16T16:09:01.936Z,92.32
2016-11-16T16:10:16.960Z,92.41
2016-11-16T16:11:30.824Z,92.03
2016-11-16T16:12:44.701Z,91.93